Terminal Aerodrome Forecast
Issued by NWS Wakefield, VA

Home | Current Version | Previous Version | Text Only | Print | Product List | Glossary On
Versions: 1 2 3 4 5 6 7 8 9 10 11 12 13 14 15 16 17 18 19 20 21 22 23
844
FTUS41 KAKQ 010203 AAA
TAFRIC
TAF AMD
KRIC 010203Z 0102/0124 08004KT P6SM FEW025 OVC045
      TEMPO 0102/0106 5SM -RA BR OVC010
     FM010600 13005KT 3SM -RA BR OVC009
     FM011500 18008KT 6SM -RA BR OVC012
     FM012000 21010KT P6SM -SHRA SCT015 BKN025=

USA.gov is the U.S. government's official web portal to all federal, state and local government web resources and services.